CheckWX is a tool to help pilots better visualize weather data.  It is not intended as a substitute for an official pre-flight weather briefing.

05:23:18 UTC

KSFY METAR
Tri-Township Airport
Savanna, Illinois, USA
Current

26 mins ago

KSFY 200457Z AUTO 08008KT 10SM SCT039 OVC045 M04/M08 A3031 RMK AO2
Observed
Feb-20 @ 04:57 UTC
Wind
  • 080° at 8 KTS
Visibility
16,093 meters
Flight Rules
VFR
Cloud Levels
  • Scattered at 3,900' AGL
  • Overcast at 4,500' AGL
Temperature
-4°C / 25°F
Dewpoint
-8°C / 18°F
Humidity
74%
Altimeter
30.31" Hg
Pressure
1026.42 hPa
Previous

45 mins ago

KSFY 200438Z AUTO 07006KT 10SM BKN037 OVC047 M04/M08 A3032 RMK AO2
Observed
Feb-20 @ 04:38 UTC
Wind
  • 070° at 6 KTS
Visibility
16,093 meters
Flight Rules
VFR
Cloud Levels
  • Broken at 3,700' AGL
  • Overcast at 4,700' AGL
Temperature
-4°C / 25°F
Dewpoint
-8°C / 18°F
Humidity
74%
Altimeter
30.32" Hg
Pressure
1026.72 hPa
Previous

1 hour ago

KSFY 200419Z AUTO 08006KT 10SM BKN047 BKN060 OVC070 M04/M08 A3033 RMK AO2
Observed
Feb-20 @ 04:19 UTC
Wind
  • 080° at 6 KTS
Visibility
16,093 meters
Flight Rules
VFR
Cloud Levels
  • Broken at 4,700' AGL
  • Broken at 6,000' AGL
  • Overcast at 7,000' AGL
Temperature
-4°C / 25°F
Dewpoint
-8°C / 18°F
Humidity
74%
Altimeter
30.33" Hg
Pressure
1027.12 hPa